sensor_id;sensor_type;location;lat;lon;timestamp;P1;durP1;ratioP1;P2;durP2;ratioP2
63818;SDS011;49970;54.976;73.248;2024-02-21T00:00:51;98.60;;;42.97;;
63818;SDS011;49970;54.976;73.248;2024-02-21T00:03:18;124.78;;;48.00;;
63818;SDS011;49970;54.976;73.248;2024-02-21T00:05:45;112.78;;;46.20;;
63818;SDS011;49970;54.976;73.248;2024-02-21T00:08:11;110.75;;;49.30;;
63818;SDS011;49970;54.976;73.248;2024-02-21T00:10:38;140.35;;;52.80;;
63818;SDS011;49970;54.976;73.248;2024-02-21T00:13:04;127.32;;;54.03;;
63818;SDS011;49970;54.976;73.248;2024-02-21T00:15:31;138.90;;;56.13;;
63818;SDS011;49970;54.976;73.248;2024-02-21T00:17:57;144.40;;;56.78;;
63818;SDS011;49970;54.976;73.248;2024-02-21T00:20:24;156.75;;;61.55;;
63818;SDS011;49970;54.976;73.248;2024-02-21T00:22:51;146.00;;;61.53;;
63818;SDS011;49970;54.976;73.248;2024-02-21T00:25:18;150.75;;;60.83;;
63818;SDS011;49970;54.976;73.248;2024-02-21T00:27:44;147.40;;;61.10;;
63818;SDS011;49970;54.976;73.248;2024-02-21T00:30:11;146.13;;;60.30;;
63818;SDS011;49970;54.976;73.248;2024-02-21T00:32:37;161.32;;;62.65;;
63818;SDS011;49970;54.976;73.248;2024-02-21T00:35:04;154.93;;;63.92;;
63818;SDS011;49970;54.976;73.248;2024-02-21T00:37:31;165.07;;;63.95;;
63818;SDS011;49970;54.976;73.248;2024-02-21T00:39:57;154.70;;;60.33;;
63818;SDS011;49970;54.976;73.248;2024-02-21T00:42:24;153.40;;;64.22;;
63818;SDS011;49970;54.976;73.248;2024-02-21T00:44:50;160.82;;;66.28;;
63818;SDS011;49970;54.976;73.248;2024-02-21T00:47:16;162.95;;;63.90;;
63818;SDS011;49970;54.976;73.248;2024-02-21T00:49:43;169.05;;;67.13;;
63818;SDS011;49970;54.976;73.248;2024-02-21T00:52:25;180.23;;;65.53;;
63818;SDS011;49970;54.976;73.248;2024-02-21T00:54:51;164.38;;;66.93;;
63818;SDS011;49970;54.976;73.248;2024-02-21T00:57:17;166.75;;;68.45;;
63818;SDS011;49970;54.976;73.248;2024-02-21T00:59:44;149.30;;;59.67;;
63818;SDS011;49970;54.976;73.248;2024-02-21T01:02:10;143.40;;;62.67;;
63818;SDS011;49970;54.976;73.248;2024-02-21T01:04:37;140.65;;;62.13;;
63818;SDS011;49970;54.976;73.248;2024-02-21T01:07:03;151.88;;;62.47;;
63818;SDS011;49970;54.976;73.248;2024-02-21T01:09:29;170.85;;;67.45;;
63818;SDS011;49970;54.976;73.248;2024-02-21T01:11:56;173.73;;;72.88;;
63818;SDS011;49970;54.976;73.248;2024-02-21T01:14:22;173.57;;;70.75;;
63818;SDS011;49970;54.976;73.248;2024-02-21T01:16:48;166.40;;;65.53;;
63818;SDS011;49970;54.976;73.248;2024-02-21T01:19:15;178.73;;;71.43;;
63818;SDS011;49970;54.976;73.248;2024-02-21T01:21:41;167.38;;;66.10;;
63818;SDS011;49970;54.976;73.248;2024-02-21T01:24:08;168.00;;;61.90;;
63818;SDS011;49970;54.976;73.248;2024-02-21T01:26:34;159.20;;;66.40;;
63818;SDS011;49970;54.976;73.248;2024-02-21T01:29:00;177.52;;;67.10;;
63818;SDS011;49970;54.976;73.248;2024-02-21T01:31:27;170.57;;;63.42;;
63818;SDS011;49970;54.976;73.248;2024-02-21T01:33:53;162.02;;;63.70;;
63818;SDS011;49970;54.976;73.248;2024-02-21T01:36:19;156.95;;;64.72;;
63818;SDS011;49970;54.976;73.248;2024-02-21T01:38:46;161.73;;;69.97;;
63818;SDS011;49970;54.976;73.248;2024-02-21T01:41:12;160.20;;;65.00;;
63818;SDS011;49970;54.976;73.248;2024-02-21T01:43:38;164.43;;;63.67;;
63818;SDS011;49970;54.976;73.248;2024-02-21T01:46:05;151.32;;;66.65;;
63818;SDS011;49970;54.976;73.248;2024-02-21T01:48:31;150.23;;;68.70;;
63818;SDS011;49970;54.976;73.248;2024-02-21T01:50:58;171.75;;;67.78;;
63818;SDS011;49970;54.976;73.248;2024-02-21T01:53:29;177.85;;;72.35;;
63818;SDS011;49970;54.976;73.248;2024-02-21T01:55:56;167.43;;;73.40;;
63818;SDS011;49970;54.976;73.248;2024-02-21T01:58:23;168.38;;;66.40;;
63818;SDS011;49970;54.976;73.248;2024-02-21T02:00:50;150.38;;;63.90;;
63818;SDS011;49970;54.976;73.248;2024-02-21T02:03:16;148.77;;;65.15;;
63818;SDS011;49970;54.976;73.248;2024-02-21T02:05:46;148.90;;;62.65;;
63818;SDS011;49970;54.976;73.248;2024-02-21T02:08:14;144.65;;;62.83;;
63818;SDS011;49970;54.976;73.248;2024-02-21T02:10:45;142.00;;;63.53;;
63818;SDS011;49970;54.976;73.248;2024-02-21T02:13:11;141.02;;;61.55;;
63818;SDS011;49970;54.976;73.248;2024-02-21T02:15:41;153.35;;;64.22;;
63818;SDS011;49970;54.976;73.248;2024-02-21T02:18:09;144.60;;;63.67;;
63818;SDS011;49970;54.976;73.248;2024-02-21T02:20:36;155.88;;;67.93;;
63818;SDS011;49970;54.976;73.248;2024-02-21T02:25:57;164.48;;;73.95;;
63818;SDS011;49970;54.976;73.248;2024-02-21T02:31:27;189.68;;;77.13;;
63818;SDS011;49970;54.976;73.248;2024-02-21T02:33:53;168.07;;;78.45;;
63818;SDS011;49970;54.976;73.248;2024-02-21T02:39:23;161.65;;;73.53;;
63818;SDS011;49970;54.976;73.248;2024-02-21T02:42:08;158.10;;;71.40;;
63818;SDS011;49970;54.976;73.248;2024-02-21T02:44:52;165.52;;;74.95;;
63818;SDS011;49970;54.976;73.248;2024-02-21T02:47:56;171.35;;;75.15;;
63818;SDS011;49970;54.976;73.248;2024-02-21T02:51:18;190.38;;;75.35;;
63818;SDS011;49970;54.976;73.248;2024-02-21T02:53:44;193.38;;;82.88;;
63818;SDS011;49970;54.976;73.248;2024-02-21T02:56:14;191.32;;;81.32;;
63818;SDS011;49970;54.976;73.248;2024-02-21T02:58:44;221.70;;;93.15;;
63818;SDS011;49970;54.976;73.248;2024-02-21T03:01:11;206.68;;;88.05;;
63818;SDS011;49970;54.976;73.248;2024-02-21T03:03:37;213.40;;;83.10;;
63818;SDS011;49970;54.976;73.248;2024-02-21T03:06:04;169.30;;;72.03;;
63818;SDS011;49970;54.976;73.248;2024-02-21T03:08:30;166.18;;;72.75;;
63818;SDS011;49970;54.976;73.248;2024-02-21T03:10:58;190.13;;;76.65;;
63818;SDS011;49970;54.976;73.248;2024-02-21T03:13:25;175.38;;;76.75;;
63818;SDS011;49970;54.976;73.248;2024-02-21T03:15:52;196.25;;;78.63;;
63818;SDS011;49970;54.976;73.248;2024-02-21T03:18:18;197.45;;;80.50;;
63818;SDS011;49970;54.976;73.248;2024-02-21T03:20:44;205.15;;;89.32;;
63818;SDS011;49970;54.976;73.248;2024-02-21T03:23:11;210.88;;;91.20;;
63818;SDS011;49970;54.976;73.248;2024-02-21T03:25:38;240.65;;;110.22;;
63818;SDS011;49970;54.976;73.248;2024-02-21T03:28:05;259.38;;;115.38;;
63818;SDS011;49970;54.976;73.248;2024-02-21T03:30:31;262.38;;;113.82;;
63818;SDS011;49970;54.976;73.248;2024-02-21T03:32:59;229.93;;;97.68;;
63818;SDS011;49970;54.976;73.248;2024-02-21T03:35:27;296.75;;;124.15;;
63818;SDS011;49970;54.976;73.248;2024-02-21T03:37:53;237.93;;;107.53;;
63818;SDS011;49970;54.976;73.248;2024-02-21T03:40:20;233.30;;;108.45;;
63818;SDS011;49970;54.976;73.248;2024-02-21T03:42:46;219.05;;;102.85;;
63818;SDS011;49970;54.976;73.248;2024-02-21T03:45:13;208.50;;;94.63;;
63818;SDS011;49970;54.976;73.248;2024-02-21T03:47:39;229.15;;;100.57;;
63818;SDS011;49970;54.976;73.248;2024-02-21T03:50:06;232.32;;;96.43;;
63818;SDS011;49970;54.976;73.248;2024-02-21T03:52:32;226.23;;;95.35;;
63818;SDS011;49970;54.976;73.248;2024-02-21T03:54:59;226.75;;;93.75;;
63818;SDS011;49970;54.976;73.248;2024-02-21T03:57:25;229.02;;;95.13;;
63818;SDS011;49970;54.976;73.248;2024-02-21T03:59:52;213.15;;;94.85;;
63818;SDS011;49970;54.976;73.248;2024-02-21T04:02:18;214.98;;;91.65;;
63818;SDS011;49970;54.976;73.248;2024-02-21T04:04:44;197.20;;;92.90;;
63818;SDS011;49970;54.976;73.248;2024-02-21T04:07:14;196.00;;;85.20;;
63818;SDS011;49970;54.976;73.248;2024-02-21T04:09:41;187.55;;;86.18;;
63818;SDS011;49970;54.976;73.248;2024-02-21T04:12:08;227.25;;;85.38;;
63818;SDS011;49970;54.976;73.248;2024-02-21T04:14:35;208.02;;;95.70;;
63818;SDS011;49970;54.976;73.248;2024-02-21T04:17:01;235.52;;;97.55;;
63818;SDS011;49970;54.976;73.248;2024-02-21T04:19:28;241.20;;;101.47;;
63818;SDS011;49970;54.976;73.248;2024-02-21T04:21:56;210.45;;;95.22;;
63818;SDS011;49970;54.976;73.248;2024-02-21T04:24:23;243.18;;;98.72;;
63818;SDS011;49970;54.976;73.248;2024-02-21T04:26:49;228.38;;;96.07;;
63818;SDS011;49970;54.976;73.248;2024-02-21T04:29:16;221.40;;;92.22;;
63818;SDS011;49970;54.976;73.248;2024-02-21T04:31:42;219.32;;;93.13;;
63818;SDS011;49970;54.976;73.248;2024-02-21T04:34:09;235.93;;;105.07;;
63818;SDS011;49970;54.976;73.248;2024-02-21T04:36:35;239.85;;;98.18;;
63818;SDS011;49970;54.976;73.248;2024-02-21T04:39:01;259.25;;;100.43;;
63818;SDS011;49970;54.976;73.248;2024-02-21T04:41:28;225.73;;;90.35;;
63818;SDS011;49970;54.976;73.248;2024-02-21T04:43:54;197.57;;;91.28;;
63818;SDS011;49970;54.976;73.248;2024-02-21T04:46:20;216.10;;;88.55;;
63818;SDS011;49970;54.976;73.248;2024-02-21T04:48:47;202.63;;;83.05;;
63818;SDS011;49970;54.976;73.248;2024-02-21T04:51:13;199.27;;;82.78;;
63818;SDS011;49970;54.976;73.248;2024-02-21T04:53:40;206.50;;;73.50;;
63818;SDS011;49970;54.976;73.248;2024-02-21T04:56:06;203.20;;;71.45;;
63818;SDS011;49970;54.976;73.248;2024-02-21T04:58:33;170.93;;;67.20;;
63818;SDS011;49970;54.976;73.248;2024-02-21T05:00:59;157.52;;;64.60;;
63818;SDS011;49970;54.976;73.248;2024-02-21T05:03:25;171.57;;;73.43;;
63818;SDS011;49970;54.976;73.248;2024-02-21T05:05:52;181.07;;;69.40;;
63818;SDS011;49970;54.976;73.248;2024-02-21T05:08:18;153.02;;;65.22;;
63818;SDS011;49970;54.976;73.248;2024-02-21T05:10:45;169.63;;;71.93;;
63818;SDS011;49970;54.976;73.248;2024-02-21T05:13:11;166.65;;;64.30;;
63818;SDS011;49970;54.976;73.248;2024-02-21T05:15:38;170.18;;;59.47;;
63818;SDS011;49970;54.976;73.248;2024-02-21T05:18:04;153.68;;;60.97;;
63818;SDS011;49970;54.976;73.248;2024-02-21T05:20:30;146.13;;;60.22;;
63818;SDS011;49970;54.976;73.248;2024-02-21T05:22:57;130.45;;;55.00;;
63818;SDS011;49970;54.976;73.248;2024-02-21T05:25:23;119.88;;;52.97;;
63818;SDS011;49970;54.976;73.248;2024-02-21T05:27:50;124.28;;;54.92;;
63818;SDS011;49970;54.976;73.248;2024-02-21T05:30:19;115.18;;;49.67;;
63818;SDS011;49970;54.976;73.248;2024-02-21T05:32:46;124.22;;;53.42;;
63818;SDS011;49970;54.976;73.248;2024-02-21T05:35:12;125.03;;;46.75;;
63818;SDS011;49970;54.976;73.248;2024-02-21T05:37:38;114.50;;;48.55;;
63818;SDS011;49970;54.976;73.248;2024-02-21T05:40:05;120.43;;;51.22;;
63818;SDS011;49970;54.976;73.248;2024-02-21T05:42:32;135.40;;;59.17;;
63818;SDS011;49970;54.976;73.248;2024-02-21T05:44:58;146.68;;;61.20;;
63818;SDS011;49970;54.976;73.248;2024-02-21T05:47:24;147.30;;;58.65;;
63818;SDS011;49970;54.976;73.248;2024-02-21T05:54:57;106.28;;;43.30;;
63818;SDS011;49970;54.976;73.248;2024-02-21T05:58:53;97.20;;;36.85;;
63818;SDS011;49970;54.976;73.248;2024-02-21T06:01:19;104.97;;;37.78;;
63818;SDS011;49970;54.976;73.248;2024-02-21T06:08:51;110.35;;;43.67;;
63818;SDS011;49970;54.976;73.248;2024-02-21T06:12:47;94.47;;;41.58;;
63818;SDS011;49970;54.976;73.248;2024-02-21T06:16:43;93.15;;;39.83;;
63818;SDS011;49970;54.976;73.248;2024-02-21T06:19:10;128.50;;;47.20;;
63818;SDS011;49970;54.976;73.248;2024-02-21T06:21:36;135.13;;;56.33;;
63818;SDS011;49970;54.976;73.248;2024-02-21T06:25:10;152.38;;;52.72;;
63818;SDS011;49970;54.976;73.248;2024-02-21T06:27:36;138.65;;;52.55;;
63818;SDS011;49970;54.976;73.248;2024-02-21T06:30:03;132.88;;;54.30;;
63818;SDS011;49970;54.976;73.248;2024-02-21T06:32:29;129.95;;;48.75;;
63818;SDS011;49970;54.976;73.248;2024-02-21T06:34:56;128.85;;;50.42;;
63818;SDS011;49970;54.976;73.248;2024-02-21T06:37:23;109.60;;;44.65;;
63818;SDS011;49970;54.976;73.248;2024-02-21T06:39:50;111.10;;;47.53;;
63818;SDS011;49970;54.976;73.248;2024-02-21T06:42:16;112.35;;;45.95;;
63818;SDS011;49970;54.976;73.248;2024-02-21T06:44:44;96.85;;;37.92;;
63818;SDS011;49970;54.976;73.248;2024-02-21T06:47:10;134.23;;;51.58;;
63818;SDS011;49970;54.976;73.248;2024-02-21T06:49:37;125.80;;;52.33;;
63818;SDS011;49970;54.976;73.248;2024-02-21T06:52:04;135.65;;;54.13;;
63818;SDS011;49970;54.976;73.248;2024-02-21T06:54:30;117.45;;;51.67;;
63818;SDS011;49970;54.976;73.248;2024-02-21T06:56:57;113.15;;;47.65;;
63818;SDS011;49970;54.976;73.248;2024-02-21T06:59:23;78.82;;;37.80;;
63818;SDS011;49970;54.976;73.248;2024-02-21T07:01:53;93.55;;;39.30;;
63818;SDS011;49970;54.976;73.248;2024-02-21T07:04:23;100.25;;;38.15;;
63818;SDS011;49970;54.976;73.248;2024-02-21T07:06:49;96.22;;;37.78;;
63818;SDS011;49970;54.976;73.248;2024-02-21T07:09:16;86.97;;;39.08;;
63818;SDS011;49970;54.976;73.248;2024-02-21T07:11:43;104.18;;;40.95;;
63818;SDS011;49970;54.976;73.248;2024-02-21T07:14:09;108.25;;;43.78;;
63818;SDS011;49970;54.976;73.248;2024-02-21T07:16:35;107.60;;;46.47;;
63818;SDS011;49970;54.976;73.248;2024-02-21T07:19:02;146.63;;;49.25;;
63818;SDS011;49970;54.976;73.248;2024-02-21T07:21:28;114.70;;;43.67;;
63818;SDS011;49970;54.976;73.248;2024-02-21T07:23:55;93.60;;;38.55;;
63818;SDS011;49970;54.976;73.248;2024-02-21T07:26:21;97.32;;;38.05;;
63818;SDS011;49970;54.976;73.248;2024-02-21T07:28:48;91.60;;;35.00;;
63818;SDS011;49970;54.976;73.248;2024-02-21T07:31:14;91.32;;;32.42;;
63818;SDS011;49970;54.976;73.248;2024-02-21T07:33:40;105.03;;;38.20;;
63818;SDS011;49970;54.976;73.248;2024-02-21T07:36:07;89.20;;;38.65;;
63818;SDS011;49970;54.976;73.248;2024-02-21T07:38:36;86.97;;;35.35;;
63818;SDS011;49970;54.976;73.248;2024-02-21T07:41:02;105.57;;;38.20;;
63818;SDS011;49970;54.976;73.248;2024-02-21T07:43:29;102.35;;;38.28;;
63818;SDS011;49970;54.976;73.248;2024-02-21T07:45:56;104.30;;;39.60;;
63818;SDS011;49970;54.976;73.248;2024-02-21T07:48:23;107.45;;;43.72;;
63818;SDS011;49970;54.976;73.248;2024-02-21T07:50:52;123.78;;;41.50;;
63818;SDS011;49970;54.976;73.248;2024-02-21T07:53:19;113.50;;;39.60;;
63818;SDS011;49970;54.976;73.248;2024-02-21T07:55:46;118.55;;;36.63;;
63818;SDS011;49970;54.976;73.248;2024-02-21T07:58:13;107.95;;;40.10;;
63818;SDS011;49970;54.976;73.248;2024-02-21T08:00:39;113.85;;;42.85;;
63818;SDS011;49970;54.976;73.248;2024-02-21T08:03:05;131.18;;;45.22;;
63818;SDS011;49970;54.976;73.248;2024-02-21T08:05:34;148.13;;;47.25;;
63818;SDS011;49970;54.976;73.248;2024-02-21T08:08:00;122.68;;;43.97;;
63818;SDS011;49970;54.976;73.248;2024-02-21T08:10:28;132.55;;;44.72;;
63818;SDS011;49970;54.976;73.248;2024-02-21T08:12:56;140.63;;;44.35;;
63818;SDS011;49970;54.976;73.248;2024-02-21T08:15:22;121.72;;;42.63;;
63818;SDS011;49970;54.976;73.248;2024-02-21T08:17:54;125.63;;;42.55;;
63818;SDS011;49970;54.976;73.248;2024-02-21T08:20:24;121.57;;;40.80;;
63818;SDS011;49970;54.976;73.248;2024-02-21T08:22:52;132.18;;;43.13;;
63818;SDS011;49970;54.976;73.248;2024-02-21T08:25:18;122.93;;;40.25;;
63818;SDS011;49970;54.976;73.248;2024-02-21T08:27:44;128.68;;;40.53;;
63818;SDS011;49970;54.976;73.248;2024-02-21T08:30:11;105.25;;;38.25;;
63818;SDS011;49970;54.976;73.248;2024-02-21T08:32:38;102.03;;;36.33;;
63818;SDS011;49970;54.976;73.248;2024-02-21T08:35:04;103.30;;;36.63;;
63818;SDS011;49970;54.976;73.248;2024-02-21T08:37:31;116.65;;;36.97;;
63818;SDS011;49970;54.976;73.248;2024-02-21T08:39:57;108.53;;;37.38;;
63818;SDS011;49970;54.976;73.248;2024-02-21T08:42:24;113.07;;;37.17;;
63818;SDS011;49970;54.976;73.248;2024-02-21T08:44:50;99.95;;;37.63;;
63818;SDS011;49970;54.976;73.248;2024-02-21T08:47:16;117.40;;;40.33;;
63818;SDS011;49970;54.976;73.248;2024-02-21T08:49:43;107.38;;;41.33;;
63818;SDS011;49970;54.976;73.248;2024-02-21T08:52:09;101.65;;;38.65;;
63818;SDS011;49970;54.976;73.248;2024-02-21T08:54:35;111.63;;;40.08;;
63818;SDS011;49970;54.976;73.248;2024-02-21T08:57:02;106.00;;;36.65;;
63818;SDS011;49970;54.976;73.248;2024-02-21T08:59:29;103.55;;;38.53;;
63818;SDS011;49970;54.976;73.248;2024-02-21T09:01:55;99.60;;;37.72;;
63818;SDS011;49970;54.976;73.248;2024-02-21T09:04:22;100.32;;;39.60;;
63818;SDS011;49970;54.976;73.248;2024-02-21T09:06:48;109.90;;;39.35;;
63818;SDS011;49970;54.976;73.248;2024-02-21T09:09:14;107.72;;;38.50;;
63818;SDS011;49970;54.976;73.248;2024-02-21T09:11:41;103.07;;;40.40;;
63818;SDS011;49970;54.976;73.248;2024-02-21T09:14:07;114.03;;;41.95;;
63818;SDS011;49970;54.976;73.248;2024-02-21T09:16:34;121.65;;;45.67;;
63818;SDS011;49970;54.976;73.248;2024-02-21T09:19:00;112.93;;;42.50;;
63818;SDS011;49970;54.976;73.248;2024-02-21T09:21:27;123.65;;;45.75;;
63818;SDS011;49970;54.976;73.248;2024-02-21T09:23:53;134.02;;;43.90;;
63818;SDS011;49970;54.976;73.248;2024-02-21T09:26:20;135.40;;;44.50;;
63818;SDS011;49970;54.976;73.248;2024-02-21T09:28:47;117.20;;;41.72;;
63818;SDS011;49970;54.976;73.248;2024-02-21T09:31:13;109.07;;;40.33;;
63818;SDS011;49970;54.976;73.248;2024-02-21T09:33:40;133.57;;;45.30;;
63818;SDS011;49970;54.976;73.248;2024-02-21T09:36:07;135.07;;;48.22;;
63818;SDS011;49970;54.976;73.248;2024-02-21T09:38:33;117.82;;;44.50;;
63818;SDS011;49970;54.976;73.248;2024-02-21T09:41:25;136.98;;;45.10;;
63818;SDS011;49970;54.976;73.248;2024-02-21T09:43:56;129.32;;;44.55;;
63818;SDS011;49970;54.976;73.248;2024-02-21T09:49:32;141.77;;;45.15;;
63818;SDS011;49970;54.976;73.248;2024-02-21T09:52:04;114.18;;;41.55;;
63818;SDS011;49970;54.976;73.248;2024-02-21T09:59:11;116.50;;;41.03;;
63818;SDS011;49970;54.976;73.248;2024-02-21T10:06:43;126.53;;;42.70;;
63818;SDS011;49970;54.976;73.248;2024-02-21T10:10:16;128.93;;;47.63;;
63818;SDS011;49970;54.976;73.248;2024-02-21T10:14:06;102.10;;;44.35;;
63818;SDS011;49970;54.976;73.248;2024-02-21T10:17:38;113.63;;;42.53;;
63818;SDS011;49970;54.976;73.248;2024-02-21T10:21:11;116.07;;;49.40;;
63818;SDS011;49970;54.976;73.248;2024-02-21T10:26:06;114.10;;;46.45;;
63818;SDS011;49970;54.976;73.248;2024-02-21T10:29:39;95.72;;;40.17;;
63818;SDS011;49970;54.976;73.248;2024-02-21T10:33:10;103.82;;;44.92;;
63818;SDS011;49970;54.976;73.248;2024-02-21T10:36:43;99.35;;;46.67;;
63818;SDS011;49970;54.976;73.248;2024-02-21T10:40:14;116.50;;;48.53;;
63818;SDS011;49970;54.976;73.248;2024-02-21T10:43:46;116.15;;;48.40;;
63818;SDS011;49970;54.976;73.248;2024-02-21T10:47:16;97.40;;;40.88;;
63818;SDS011;49970;54.976;73.248;2024-02-21T10:57:22;97.57;;;42.70;;
63818;SDS011;49970;54.976;73.248;2024-02-21T11:00:53;91.05;;;43.90;;
63818;SDS011;49970;54.976;73.248;2024-02-21T11:04:24;104.15;;;49.13;;
63818;SDS011;49970;54.976;73.248;2024-02-21T11:07:55;107.88;;;49.38;;
63818;SDS011;49970;54.976;73.248;2024-02-21T11:11:26;127.70;;;51.22;;
63818;SDS011;49970;54.976;73.248;2024-02-21T11:15:04;110.00;;;50.78;;
63818;SDS011;49970;54.976;73.248;2024-02-21T11:18:37;137.70;;;58.35;;
63818;SDS011;49970;54.976;73.248;2024-02-21T11:22:18;135.93;;;60.72;;
63818;SDS011;49970;54.976;73.248;2024-02-21T11:26:48;108.45;;;53.58;;
63818;SDS011;49970;54.976;73.248;2024-02-21T11:30:17;96.22;;;49.78;;
63818;SDS011;49970;54.976;73.248;2024-02-21T11:33:48;114.20;;;47.20;;
63818;SDS011;49970;54.976;73.248;2024-02-21T11:37:24;109.22;;;48.70;;
63818;SDS011;49970;54.976;73.248;2024-02-21T11:40:53;116.82;;;46.90;;
63818;SDS011;49970;54.976;73.248;2024-02-21T11:44:24;111.22;;;49.90;;
63818;SDS011;49970;54.976;73.248;2024-02-21T11:47:55;115.32;;;50.08;;
63818;SDS011;49970;54.976;73.248;2024-02-21T11:51:25;109.50;;;47.95;;
63818;SDS011;49970;54.976;73.248;2024-02-21T11:54:57;115.22;;;50.13;;
63818;SDS011;49970;54.976;73.248;2024-02-21T11:58:28;130.35;;;51.15;;
63818;SDS011;49970;54.976;73.248;2024-02-21T12:01:59;112.57;;;49.80;;
63818;SDS011;49970;54.976;73.248;2024-02-21T12:05:30;107.38;;;46.25;;
63818;SDS011;49970;54.976;73.248;2024-02-21T12:09:00;115.28;;;49.95;;
63818;SDS011;49970;54.976;73.248;2024-02-21T12:12:32;113.25;;;52.58;;
63818;SDS011;49970;54.976;73.248;2024-02-21T12:16:03;124.55;;;52.20;;
63818;SDS011;49970;54.976;73.248;2024-02-21T12:19:34;122.68;;;53.33;;
63818;SDS011;49970;54.976;73.248;2024-02-21T12:23:08;132.45;;;52.00;;
63818;SDS011;49970;54.976;73.248;2024-02-21T12:26:49;137.63;;;52.85;;
63818;SDS011;49970;54.976;73.248;2024-02-21T12:30:38;131.75;;;55.47;;
63818;SDS011;49970;54.976;73.248;2024-02-21T12:34:09;146.57;;;60.90;;
63818;SDS011;49970;54.976;73.248;2024-02-21T12:37:40;163.27;;;67.30;;
63818;SDS011;49970;54.976;73.248;2024-02-21T12:41:11;172.23;;;71.07;;
63818;SDS011;49970;54.976;73.248;2024-02-21T12:44:42;176.57;;;73.57;;
63818;SDS011;49970;54.976;73.248;2024-02-21T12:51:49;187.25;;;78.68;;
63818;SDS011;49970;54.976;73.248;2024-02-21T12:55:19;187.70;;;79.07;;
63818;SDS011;49970;54.976;73.248;2024-02-21T12:58:50;174.82;;;73.57;;
63818;SDS011;49970;54.976;73.248;2024-02-21T13:02:21;184.00;;;75.38;;
63818;SDS011;49970;54.976;73.248;2024-02-21T13:06:09;172.38;;;72.47;;
63818;SDS011;49970;54.976;73.248;2024-02-21T13:08:46;160.88;;;69.85;;
63818;SDS011;49970;54.976;73.248;2024-02-21T13:12:17;170.07;;;76.60;;
63818;SDS011;49970;54.976;73.248;2024-02-21T13:15:48;192.90;;;88.55;;
63818;SDS011;49970;54.976;73.248;2024-02-21T13:19:19;241.02;;;106.55;;
63818;SDS011;49970;54.976;73.248;2024-02-21T13:30:38;222.88;;;95.28;;
63818;SDS011;49970;54.976;73.248;2024-02-21T13:33:19;223.85;;;99.70;;
63818;SDS011;49970;54.976;73.248;2024-02-21T13:35:46;215.45;;;98.18;;
63818;SDS011;49970;54.976;73.248;2024-02-21T13:38:12;224.32;;;102.50;;
63818;SDS011;49970;54.976;73.248;2024-02-21T13:40:55;217.75;;;96.57;;
63818;SDS011;49970;54.976;73.248;2024-02-21T13:44:27;203.35;;;86.32;;
63818;SDS011;49970;54.976;73.248;2024-02-21T13:47:58;201.15;;;87.38;;
63818;SDS011;49970;54.976;73.248;2024-02-21T13:51:40;213.45;;;90.85;;
63818;SDS011;49970;54.976;73.248;2024-02-21T13:54:08;232.10;;;103.57;;
63818;SDS011;49970;54.976;73.248;2024-02-21T13:56:35;250.18;;;110.10;;
63818;SDS011;49970;54.976;73.248;2024-02-21T14:00:06;255.63;;;119.70;;
63818;SDS011;49970;54.976;73.248;2024-02-21T14:03:37;267.60;;;124.05;;
63818;SDS011;49970;54.976;73.248;2024-02-21T14:06:04;271.38;;;126.53;;
63818;SDS011;49970;54.976;73.248;2024-02-21T14:08:31;263.23;;;126.15;;
63818;SDS011;49970;54.976;73.248;2024-02-21T14:11:00;255.85;;;125.63;;
63818;SDS011;49970;54.976;73.248;2024-02-21T14:13:26;243.98;;;116.35;;
63818;SDS011;49970;54.976;73.248;2024-02-21T14:15:52;243.73;;;112.38;;
63818;SDS011;49970;54.976;73.248;2024-02-21T14:18:19;219.43;;;102.68;;
63818;SDS011;49970;54.976;73.248;2024-02-21T14:20:45;222.00;;;101.93;;
63818;SDS011;49970;54.976;73.248;2024-02-21T14:23:12;208.02;;;94.75;;
63818;SDS011;49970;54.976;73.248;2024-02-21T14:26:42;200.20;;;86.47;;
63818;SDS011;49970;54.976;73.248;2024-02-21T14:29:08;183.15;;;81.35;;
63818;SDS011;49970;54.976;73.248;2024-02-21T14:31:35;201.50;;;86.80;;
63818;SDS011;49970;54.976;73.248;2024-02-21T14:34:01;178.50;;;81.25;;
63818;SDS011;49970;54.976;73.248;2024-02-21T14:36:28;178.55;;;80.63;;
63818;SDS011;49970;54.976;73.248;2024-02-21T14:38:55;171.82;;;77.68;;
63818;SDS011;49970;54.976;73.248;2024-02-21T14:41:24;179.90;;;80.20;;
63818;SDS011;49970;54.976;73.248;2024-02-21T14:43:53;171.23;;;75.90;;
63818;SDS011;49970;54.976;73.248;2024-02-21T14:46:21;167.35;;;72.85;;
63818;SDS011;49970;54.976;73.248;2024-02-21T14:48:48;167.07;;;74.15;;
63818;SDS011;49970;54.976;73.248;2024-02-21T14:51:14;177.95;;;73.93;;
63818;SDS011;49970;54.976;73.248;2024-02-21T14:53:41;187.32;;;82.60;;
63818;SDS011;49970;54.976;73.248;2024-02-21T14:56:12;184.30;;;79.90;;
63818;SDS011;49970;54.976;73.248;2024-02-21T14:58:41;172.70;;;73.80;;
63818;SDS011;49970;54.976;73.248;2024-02-21T15:01:07;146.57;;;67.07;;
63818;SDS011;49970;54.976;73.248;2024-02-21T15:03:34;162.95;;;66.97;;
63818;SDS011;49970;54.976;73.248;2024-02-21T15:07:04;145.55;;;60.25;;
63818;SDS011;49970;54.976;73.248;2024-02-21T15:09:30;156.90;;;68.15;;
63818;SDS011;49970;54.976;73.248;2024-02-21T15:11:57;166.13;;;66.47;;
63818;SDS011;49970;54.976;73.248;2024-02-21T15:14:23;177.23;;;71.90;;
63818;SDS011;49970;54.976;73.248;2024-02-21T15:16:49;177.40;;;72.97;;
63818;SDS011;49970;54.976;73.248;2024-02-21T15:19:16;173.50;;;69.03;;
63818;SDS011;49970;54.976;73.248;2024-02-21T15:21:42;165.00;;;73.95;;
63818;SDS011;49970;54.976;73.248;2024-02-21T15:24:09;198.57;;;74.95;;
63818;SDS011;49970;54.976;73.248;2024-02-21T15:26:36;203.88;;;78.70;;
63818;SDS011;49970;54.976;73.248;2024-02-21T15:29:02;208.23;;;79.40;;
63818;SDS011;49970;54.976;73.248;2024-02-21T15:31:30;197.32;;;70.93;;
63818;SDS011;49970;54.976;73.248;2024-02-21T15:33:57;177.90;;;73.63;;
63818;SDS011;49970;54.976;73.248;2024-02-21T15:36:24;183.20;;;71.45;;
63818;SDS011;49970;54.976;73.248;2024-02-21T15:38:51;159.60;;;63.08;;
63818;SDS011;49970;54.976;73.248;2024-02-21T15:41:17;149.43;;;63.38;;
63818;SDS011;49970;54.976;73.248;2024-02-21T15:43:47;145.43;;;54.92;;
63818;SDS011;49970;54.976;73.248;2024-02-21T15:46:13;138.77;;;56.33;;
63818;SDS011;49970;54.976;73.248;2024-02-21T15:48:39;134.95;;;50.75;;
63818;SDS011;49970;54.976;73.248;2024-02-21T15:51:06;119.97;;;53.85;;
63818;SDS011;49970;54.976;73.248;2024-02-21T15:53:33;139.07;;;54.00;;
63818;SDS011;49970;54.976;73.248;2024-02-21T15:56:00;127.18;;;55.67;;
63818;SDS011;49970;54.976;73.248;2024-02-21T15:58:26;129.45;;;53.00;;